createdAt,value
2022-11-03T00:02:26.664Z,77.00
2022-11-03T00:04:55.072Z,77.00
2022-11-03T00:07:23.909Z,77.20
2022-11-03T00:09:52.654Z,77.30
2022-11-03T00:12:21.105Z,77.30
2022-11-03T00:14:51.047Z,77.30
2022-11-03T00:17:19.550Z,77.30
2022-11-03T00:19:47.942Z,77.40
2022-11-03T00:22:16.436Z,77.60
2022-11-03T00:24:44.876Z,77.60
2022-11-03T00:27:13.296Z,77.50
2022-11-03T00:29:41.776Z,77.60
2022-11-03T00:32:11.549Z,77.50
2022-11-03T00:34:40.756Z,77.40
2022-11-03T00:37:09.130Z,78.10
2022-11-03T00:39:37.552Z,77.50
2022-11-03T00:42:06.205Z,77.60
2022-11-03T00:44:34.618Z,77.70
2022-11-03T00:47:03.029Z,77.90
2022-11-03T00:49:33.092Z,78.10
2022-11-03T00:52:01.544Z,78.20
2022-11-03T00:54:29.971Z,78.40
2022-11-03T00:56:58.440Z,78.40
2022-11-03T00:59:26.862Z,78.60
2022-11-03T01:01:55.399Z,78.70
2022-11-03T01:04:41.592Z,78.80
2022-11-03T01:07:11.381Z,79.00
2022-11-03T01:09:40.378Z,79.10
2022-11-03T01:12:10.073Z,79.20
2022-11-03T01:14:39.821Z,79.10
2022-11-03T01:17:08.907Z,79.00
2022-11-03T01:19:37.397Z,78.90
2022-11-03T01:22:09.538Z,78.80
2022-11-03T01:24:41.840Z,78.90
2022-11-03T01:27:10.518Z,78.90
2022-11-03T01:29:38.927Z,78.80
2022-11-03T01:32:08.613Z,79.00
2022-11-03T01:34:37.325Z,78.90
2022-11-03T01:37:05.916Z,79.00
2022-11-03T01:39:34.410Z,79.00
2022-11-03T01:42:04.532Z,79.00
2022-11-03T01:44:51.280Z,79.00
2022-11-03T01:47:38.114Z,78.90
2022-11-03T01:50:07.829Z,78.80
2022-11-03T01:52:38.585Z,78.60
2022-11-03T01:55:09.127Z,78.50
2022-11-03T01:57:41.528Z,78.40
2022-11-03T02:00:10.852Z,78.50
2022-11-03T02:02:42.043Z,78.50
2022-11-03T02:05:11.777Z,78.70
2022-11-03T02:07:41.538Z,78.80
2022-11-03T02:10:10.638Z,78.90
2022-11-03T02:12:40.846Z,79.50
2022-11-03T02:15:10.642Z,78.70
2022-11-03T02:17:39.453Z,78.70
2022-11-03T02:20:10.164Z,78.60
2022-11-03T02:22:53.482Z,78.50
2022-11-03T02:25:35.903Z,78.40
2022-11-03T02:28:04.559Z,78.70
2022-11-03T02:30:36.343Z,79.00
2022-11-03T02:33:07.686Z,79.10
2022-11-03T02:35:39.936Z,79.30
2022-11-03T02:38:11.035Z,79.40
2022-11-03T02:41:02.429Z,79.60
2022-11-03T02:43:31.114Z,79.70
2022-11-03T02:45:59.709Z,79.80
2022-11-03T02:48:28.605Z,80.00
2022-11-03T02:50:57.059Z,80.00
2022-11-03T02:53:26.178Z,80.10
2022-11-03T02:55:57.429Z,80.10
2022-11-03T02:58:30.933Z,80.10
2022-11-03T03:01:02.033Z,80.00
2022-11-03T03:03:33.500Z,79.90
2022-11-03T03:06:04.016Z,79.80
2022-11-03T03:08:33.551Z,79.80
2022-11-03T03:11:02.315Z,79.70
2022-11-03T03:13:32.466Z,79.40
2022-11-03T03:16:08.041Z,79.30
2022-11-03T03:18:43.056Z,79.40
2022-11-03T03:21:14.063Z,79.50
2022-11-03T03:23:48.296Z,79.70
2022-11-03T03:26:21.768Z,80.00
2022-11-03T03:28:52.986Z,80.20
2022-11-03T03:31:21.922Z,80.20
2022-11-03T03:33:53.280Z,80.40
2022-11-03T03:36:25.319Z,80.60
2022-11-03T03:38:55.679Z,80.60
2022-11-03T03:41:25.589Z,80.60
2022-11-03T03:43:57.118Z,80.70
2022-11-03T03:46:28.963Z,80.60
2022-11-03T03:48:57.435Z,80.40
2022-11-03T03:51:30.051Z,80.00
2022-11-03T03:53:58.443Z,80.00
2022-11-03T03:56:30.124Z,80.00
2022-11-03T03:59:00.012Z,80.20
2022-11-03T04:01:28.573Z,80.10
2022-11-03T04:03:57.029Z,80.10
2022-11-03T04:06:25.491Z,80.20
2022-11-03T04:08:53.989Z,80.20
2022-11-03T04:11:40.040Z,80.10
2022-11-03T04:14:28.349Z,80.20
2022-11-03T04:17:14.446Z,79.80
2022-11-03T04:20:00.388Z,79.70
2022-11-03T04:22:31.483Z,79.90
2022-11-03T04:25:00.528Z,80.10
2022-11-03T04:27:32.829Z,80.10
2022-11-03T04:30:04.610Z,80.00
2022-11-03T04:32:33.500Z,79.90
2022-11-03T04:35:02.143Z,80.10
2022-11-03T04:37:30.727Z,80.10
2022-11-03T04:40:01.399Z,80.20
2022-11-03T04:42:32.416Z,80.40
2022-11-03T04:45:03.474Z,80.30
2022-11-03T04:47:32.384Z,80.50
2022-11-03T04:50:00.766Z,80.60
2022-11-03T04:52:31.211Z,80.60
2022-11-03T04:54:59.778Z,80.50
2022-11-03T04:57:29.425Z,80.60
2022-11-03T04:59:58.114Z,80.80
2022-11-03T05:02:32.144Z,80.80
2022-11-03T05:05:00.970Z,80.40
2022-11-03T05:07:30.921Z,80.00
2022-11-03T05:09:59.531Z,79.80
2022-11-03T05:12:28.082Z,79.50
2022-11-03T05:14:58.754Z,79.50
2022-11-03T05:17:29.558Z,79.50
2022-11-03T05:19:59.443Z,79.70
2022-11-03T05:22:30.687Z,79.50
2022-11-03T05:25:01.847Z,79.50
2022-11-03T05:27:30.776Z,79.30
2022-11-03T05:30:01.455Z,79.30
2022-11-03T05:32:33.811Z,79.40
2022-11-03T05:35:02.512Z,79.50
2022-11-03T05:37:32.360Z,79.50
2022-11-03T05:40:01.955Z,79.50
2022-11-03T05:42:33.287Z,79.70
2022-11-03T05:45:03.010Z,79.80
2022-11-03T05:47:35.177Z,80.50
2022-11-03T05:50:12.820Z,79.80
2022-11-03T05:52:41.514Z,79.90
2022-11-03T05:55:13.903Z,80.00
2022-11-03T05:57:42.449Z,80.00
2022-11-03T06:00:30.584Z,78.90
2022-11-03T06:03:01.029Z,78.60
2022-11-03T06:05:29.739Z,78.70
2022-11-03T06:07:59.344Z,78.60
2022-11-03T06:10:28.511Z,78.50
2022-11-03T06:12:58.512Z,78.50
2022-11-03T06:15:30.522Z,78.40
2022-11-03T06:18:00.971Z,78.40
2022-11-03T06:20:29.614Z,78.30
2022-11-03T06:22:58.118Z,78.20
2022-11-03T06:25:29.638Z,78.20
2022-11-03T06:28:01.242Z,78.20
2022-11-03T06:30:30.645Z,78.80
2022-11-03T06:33:05.878Z,78.10
2022-11-03T06:35:36.425Z,78.10
2022-11-03T06:38:04.968Z,78.00
2022-11-03T06:40:37.363Z,77.90
2022-11-03T06:43:20.801Z,77.70
2022-11-03T06:45:53.199Z,77.60
2022-11-03T06:48:41.497Z,77.40
2022-11-03T06:51:15.974Z,77.10
2022-11-03T06:53:44.861Z,76.90
2022-11-03T06:56:16.421Z,76.70
2022-11-03T06:58:45.310Z,76.10
2022-11-03T07:01:15.886Z,76.40
2022-11-03T07:03:46.177Z,75.40
2022-11-03T07:06:21.590Z,74.70
2022-11-03T07:08:50.991Z,74.00
2022-11-03T07:11:20.838Z,73.50
2022-11-03T07:13:49.593Z,72.90
2022-11-03T07:16:21.330Z,72.40
2022-11-03T07:18:51.288Z,71.50
2022-11-03T07:21:36.604Z,71.00
2022-11-03T07:24:07.045Z,70.30
2022-11-03T07:26:35.917Z,69.70
2022-11-03T07:29:04.446Z,69.20
2022-11-03T07:31:33.133Z,68.60
2022-11-03T07:34:03.052Z,68.10
2022-11-03T07:36:55.413Z,67.50
2022-11-03T07:39:24.759Z,67.40
2022-11-03T07:42:15.096Z,66.70
2022-11-03T07:44:43.712Z,66.40
2022-11-03T07:47:13.744Z,65.60
2022-11-03T07:49:43.991Z,65.40
2022-11-03T07:52:13.753Z,65.10
2022-11-03T07:54:42.239Z,64.50
2022-11-03T07:57:14.963Z,64.00
2022-11-03T07:59:45.495Z,63.70
2022-11-03T08:02:24.572Z,63.30
2022-11-03T08:04:54.664Z,63.20
2022-11-03T08:07:23.194Z,62.70
2022-11-03T08:09:51.626Z,62.40
2022-11-03T08:12:20.099Z,61.70
2022-11-03T08:14:48.858Z,61.60
2022-11-03T08:17:17.326Z,60.90
2022-11-03T08:19:45.713Z,60.30
2022-11-03T08:22:15.668Z,59.80
2022-11-03T08:24:44.429Z,59.10
2022-11-03T08:27:12.963Z,58.60
2022-11-03T08:29:41.419Z,57.50
2022-11-03T08:32:09.895Z,56.90
2022-11-03T08:34:38.424Z,56.00
2022-11-03T08:37:07.008Z,54.90
2022-11-03T08:39:36.903Z,54.40
2022-11-03T08:42:05.586Z,51.70
2022-11-03T08:44:34.087Z,48.90
2022-11-03T08:47:02.935Z,47.30
2022-11-03T08:49:31.480Z,45.80
2022-11-03T08:52:00.565Z,44.10
2022-11-03T08:54:29.187Z,43.10
2022-11-03T08:56:59.138Z,41.20
2022-11-03T08:59:27.705Z,39.90
2022-11-03T09:01:57.698Z,38.70
2022-11-03T09:04:26.442Z,38.00
2022-11-03T09:06:55.071Z,36.90
2022-11-03T09:12:13.691Z,34.90
2022-11-03T09:14:42.476Z,34.20
2022-11-03T09:17:10.893Z,33.40
2022-11-03T09:19:39.415Z,33.00
2022-11-03T09:22:07.833Z,32.50
2022-11-03T09:24:36.564Z,31.80
2022-11-03T09:27:05.532Z,31.50
2022-11-03T09:29:58.359Z,31.40
2022-11-03T09:32:24.248Z,31.20
2022-11-03T09:34:52.786Z,30.50
2022-11-03T09:37:23.149Z,30.20
2022-11-03T09:39:51.754Z,29.90
2022-11-03T09:42:20.263Z,30.00
2022-11-03T09:44:51.913Z,30.10
2022-11-03T09:47:23.025Z,30.20
2022-11-03T09:50:14.291Z,30.00
2022-11-03T09:52:46.190Z,29.90
2022-11-03T09:55:20.329Z,29.40
2022-11-03T09:57:48.978Z,29.40
2022-11-03T10:00:21.013Z,29.30
2022-11-03T10:02:49.993Z,29.40
2022-11-03T10:05:20.800Z,29.00
2022-11-03T10:07:49.513Z,29.00
2022-11-03T10:10:19.422Z,29.10
2022-11-03T10:12:48.729Z,29.30
2022-11-03T10:15:19.405Z,29.20
2022-11-03T10:17:48.416Z,29.50
2022-11-03T10:20:18.347Z,29.80
2022-11-03T10:22:47.887Z,29.80
2022-11-03T10:25:35.339Z,29.60
2022-11-03T10:28:18.446Z,29.50
2022-11-03T10:33:42.374Z,29.50
2022-11-03T10:36:24.094Z,29.60
2022-11-03T10:38:52.837Z,29.40
2022-11-03T10:41:22.254Z,29.50
2022-11-03T10:44:04.647Z,29.30
2022-11-03T10:46:51.468Z,29.40
2022-11-03T10:49:21.452Z,29.30
2022-11-03T10:51:51.687Z,29.40
2022-11-03T10:54:39.017Z,29.60
2022-11-03T10:57:09.137Z,29.90
2022-11-03T10:59:38.617Z,30.90
2022-11-03T11:02:15.280Z,31.80
2022-11-03T11:04:44.568Z,32.50
2022-11-03T11:07:25.144Z,33.40
2022-11-03T11:09:54.538Z,34.10
2022-11-03T11:12:24.002Z,34.70
2022-11-03T11:14:53.989Z,35.40
2022-11-03T11:17:43.829Z,36.00
2022-11-03T11:20:32.451Z,36.90
2022-11-03T11:23:19.533Z,37.30
2022-11-03T11:26:06.554Z,37.50
2022-11-03T11:28:35.422Z,37.90
2022-11-03T11:31:04.239Z,38.30
2022-11-03T11:33:35.008Z,38.80
2022-11-03T11:36:04.767Z,39.20
2022-11-03T11:39:06.693Z,39.40
2022-11-03T11:41:54.080Z,40.00
2022-11-03T11:44:41.160Z,40.40
2022-11-03T11:47:22.238Z,40.50
2022-11-03T11:50:01.511Z,40.60
2022-11-03T11:52:30.072Z,41.00
2022-11-03T11:55:21.516Z,41.40
2022-11-03T11:57:50.154Z,42.10
2022-11-03T12:00:20.423Z,42.50
2022-11-03T12:02:49.750Z,42.80
2022-11-03T12:05:24.258Z,42.90
2022-11-03T12:07:52.826Z,43.00
2022-11-03T12:10:22.923Z,43.10
2022-11-03T12:12:51.539Z,43.40
2022-11-03T12:15:38.864Z,43.60
2022-11-03T12:18:22.501Z,44.00
2022-11-03T12:20:53.360Z,44.00
2022-11-03T12:23:38.157Z,44.10
2022-11-03T12:26:07.071Z,44.40
2022-11-03T12:28:36.234Z,44.80
2022-11-03T12:31:04.953Z,45.00
2022-11-03T12:33:33.504Z,45.30
2022-11-03T12:36:03.461Z,45.60
2022-11-03T12:38:32.068Z,45.70
2022-11-03T12:41:21.113Z,46.00
2022-11-03T12:43:50.323Z,46.20
2022-11-03T12:46:19.975Z,46.40
2022-11-03T12:48:49.492Z,46.60
2022-11-03T12:51:20.513Z,46.90
2022-11-03T12:53:49.171Z,47.10
2022-11-03T12:56:18.162Z,47.20
2022-11-03T12:58:47.025Z,47.30
2022-11-03T13:01:16.714Z,47.50
2022-11-03T13:03:45.576Z,47.80
2022-11-03T13:06:14.962Z,47.90
2022-11-03T13:08:49.046Z,48.10
2022-11-03T13:11:36.059Z,48.40
2022-11-03T13:14:06.018Z,48.50
2022-11-03T13:16:53.332Z,48.90
2022-11-03T13:19:21.966Z,49.00
2022-11-03T13:21:50.595Z,49.30
2022-11-03T13:24:20.547Z,49.00
2022-11-03T13:26:49.237Z,48.60
2022-11-03T13:29:17.851Z,48.50
2022-11-03T13:31:46.332Z,48.60
2022-11-03T13:34:15.149Z,48.80
2022-11-03T13:36:43.887Z,48.80
2022-11-03T13:39:12.853Z,49.00
2022-11-03T13:41:42.736Z,49.20
2022-11-03T13:44:11.413Z,49.40
2022-11-03T13:46:39.958Z,49.60
2022-11-03T13:49:51.096Z,49.80
2022-11-03T13:51:57.335Z,50.20
2022-11-03T14:00:06.652Z,51.00
2022-11-03T14:05:29.628Z,51.90
2022-11-03T14:07:58.144Z,52.20
2022-11-03T14:10:26.690Z,52.50
2022-11-03T14:12:55.864Z,52.90
2022-11-03T14:15:24.382Z,53.10
2022-11-03T14:17:52.904Z,53.50
2022-11-03T14:20:22.021Z,53.80
2022-11-03T14:22:50.677Z,54.10
2022-11-03T14:25:20.467Z,54.60
2022-11-03T14:27:49.146Z,55.00
2022-11-03T14:30:19.164Z,55.50
2022-11-03T14:32:47.876Z,55.80
2022-11-03T14:35:16.633Z,56.20
2022-11-03T14:37:45.223Z,56.40
2022-11-03T14:40:33.894Z,56.80
2022-11-03T14:43:01.372Z,57.10
2022-11-03T14:45:31.318Z,57.40
2022-11-03T14:47:59.856Z,57.80
2022-11-03T14:50:28.441Z,58.10
2022-11-03T14:52:59.805Z,58.50
2022-11-03T14:55:28.836Z,58.70
2022-11-03T14:57:57.514Z,59.10
2022-11-03T15:00:26.649Z,59.40
2022-11-03T15:02:56.750Z,59.80
2022-11-03T15:05:46.438Z,59.90
2022-11-03T15:08:15.378Z,60.20
2022-11-03T15:10:44.441Z,60.60
2022-11-03T15:13:12.846Z,60.80
2022-11-03T15:15:41.947Z,61.20
2022-11-03T15:18:12.069Z,61.60
2022-11-03T15:20:40.705Z,61.80
2022-11-03T15:25:58.174Z,62.20
2022-11-03T15:28:26.740Z,62.60
2022-11-03T15:30:55.167Z,62.90
2022-11-03T15:33:29.039Z,63.20
2022-11-03T15:35:57.984Z,63.50
2022-11-03T15:38:28.012Z,64.00
2022-11-03T15:41:16.459Z,64.30
2022-11-03T15:43:45.918Z,64.50
2022-11-03T15:46:15.534Z,64.80
2022-11-03T15:48:49.551Z,65.20
2022-11-03T15:51:18.176Z,65.50
2022-11-03T15:53:46.686Z,65.80
2022-11-03T15:56:15.184Z,66.10
2022-11-03T15:58:44.763Z,66.40
2022-11-03T16:01:13.326Z,66.70
2022-11-03T16:03:42.018Z,67.20
2022-11-03T16:06:12.093Z,67.40
2022-11-03T16:08:40.640Z,67.70
2022-11-03T16:11:12.759Z,67.90
2022-11-03T16:13:41.281Z,68.10
2022-11-03T16:16:10.064Z,68.30
2022-11-03T16:18:38.974Z,68.40
2022-11-03T16:21:07.653Z,68.70
2022-11-03T16:23:37.858Z,68.90
2022-11-03T16:26:09.147Z,69.20
2022-11-03T16:28:41.667Z,69.30
2022-11-03T16:31:13.771Z,69.60
2022-11-03T16:33:43.066Z,69.80
2022-11-03T16:36:11.753Z,70.10
2022-11-03T16:38:41.717Z,70.40
2022-11-03T16:41:10.457Z,70.50
2022-11-03T16:43:39.349Z,70.70
2022-11-03T16:46:07.942Z,71.00
2022-11-03T16:48:36.509Z,71.20
2022-11-03T16:51:05.195Z,71.50
2022-11-03T16:53:33.915Z,71.70
2022-11-03T16:56:03.794Z,72.00
2022-11-03T16:58:32.927Z,72.30
2022-11-03T17:01:01.870Z,72.50
2022-11-03T17:03:30.604Z,72.60
2022-11-03T17:05:59.298Z,72.90
2022-11-03T17:11:36.232Z,73.10
2022-11-03T17:14:09.130Z,73.20
2022-11-03T17:16:48.881Z,73.40
2022-11-03T17:19:26.832Z,73.60
2022-11-03T17:22:06.173Z,73.80
2022-11-03T17:24:39.509Z,74.10
2022-11-03T17:27:20.102Z,74.40
2022-11-03T17:29:56.831Z,74.70
2022-11-03T17:32:41.690Z,75.00
2022-11-03T17:35:20.940Z,75.20
2022-11-03T17:38:00.365Z,75.30
2022-11-03T17:40:37.630Z,75.70
2022-11-03T17:43:22.283Z,76.00
2022-11-03T17:46:01.749Z,76.30
2022-11-03T17:48:37.833Z,76.40
2022-11-03T17:51:16.423Z,76.60
2022-11-03T17:53:59.702Z,76.70
2022-11-03T17:56:42.240Z,77.10
2022-11-03T17:59:27.980Z,77.30
2022-11-03T18:02:08.609Z,77.60
2022-11-03T18:04:51.640Z,77.90
2022-11-03T18:07:37.060Z,77.80
2022-11-03T18:10:16.690Z,77.90
2022-11-03T18:13:11.325Z,77.90
2022-11-03T18:16:00.342Z,78.20
2022-11-03T18:18:35.081Z,78.60
2022-11-03T18:21:16.967Z,78.90
2022-11-03T18:23:57.624Z,79.20
2022-11-03T18:26:35.259Z,79.30
2022-11-03T18:29:23.006Z,79.50
2022-11-03T18:32:00.732Z,79.80
2022-11-03T18:34:40.642Z,79.90
2022-11-03T18:37:19.513Z,80.00
2022-11-03T18:39:59.033Z,80.10
2022-11-03T18:42:36.133Z,80.20
2022-11-03T18:45:15.361Z,80.50
2022-11-03T18:48:10.251Z,80.60
2022-11-03T18:50:45.012Z,80.90
2022-11-03T18:53:15.236Z,81.00
2022-11-03T18:55:43.910Z,81.20
2022-11-03T18:58:17.834Z,81.40
2022-11-03T19:00:46.616Z,81.60
2022-11-03T19:03:18.138Z,81.80
2022-11-03T19:05:47.951Z,81.80
2022-11-03T19:08:19.454Z,82.00
2022-11-03T19:10:48.606Z,82.00
2022-11-03T19:13:18.155Z,82.30
2022-11-03T19:15:48.446Z,82.30
2022-11-03T19:18:18.982Z,82.40
2022-11-03T19:20:47.722Z,82.60
2022-11-03T19:23:16.268Z,82.90
2022-11-03T19:25:45.396Z,83.10
2022-11-03T19:28:14.724Z,83.20
2022-11-03T19:30:43.430Z,83.40
2022-11-03T19:33:16.836Z,83.60
2022-11-03T19:35:47.192Z,83.70
2022-11-03T19:38:17.085Z,84.00
2022-11-03T19:40:59.809Z,84.20
2022-11-03T19:43:34.153Z,84.30
2022-11-03T19:46:03.467Z,84.20
2022-11-03T19:48:34.606Z,84.30
2022-11-03T19:51:06.646Z,84.40
2022-11-03T19:53:35.461Z,84.60
2022-11-03T19:56:05.078Z,84.50
2022-11-03T19:58:33.640Z,84.30
2022-11-03T20:01:21.088Z,84.30
2022-11-03T20:03:49.744Z,84.10
2022-11-03T20:06:19.930Z,84.20
2022-11-03T20:08:48.725Z,84.20
2022-11-03T20:11:17.240Z,84.40
2022-11-03T20:13:45.905Z,84.50
2022-11-03T20:16:15.125Z,84.60
2022-11-03T20:18:43.974Z,84.80
2022-11-03T20:21:15.628Z,85.10
2022-11-03T20:23:45.949Z,85.40
2022-11-03T20:26:15.623Z,85.60
2022-11-03T20:28:44.361Z,85.70
2022-11-03T20:31:13.093Z,85.80
2022-11-03T20:33:41.916Z,85.90
2022-11-03T20:36:14.696Z,86.00
2022-11-03T20:38:43.456Z,86.20
2022-11-03T20:41:15.414Z,86.40
2022-11-03T20:43:45.253Z,86.60
2022-11-03T20:46:21.953Z,86.70
2022-11-03T20:48:51.030Z,86.90
2022-11-03T20:51:20.190Z,86.80
2022-11-03T20:53:49.847Z,86.90
2022-11-03T20:56:21.388Z,87.10
2022-11-03T20:58:50.591Z,87.20
2022-11-03T21:01:20.519Z,87.30
2022-11-03T21:04:04.876Z,87.40
2022-11-03T21:06:35.237Z,87.50
2022-11-03T21:09:04.615Z,87.80
2022-11-03T21:11:39.963Z,88.10
2022-11-03T21:14:15.396Z,88.30
2022-11-03T21:17:01.461Z,89.10
2022-11-03T21:19:48.356Z,88.70
2022-11-03T21:22:37.915Z,88.90
2022-11-03T21:25:08.953Z,89.20
2022-11-03T21:27:42.202Z,89.30
2022-11-03T21:30:12.840Z,89.90
2022-11-03T21:32:41.541Z,90.00
2022-11-03T21:35:14.826Z,90.00
2022-11-03T21:37:43.343Z,90.10
2022-11-03T21:40:12.490Z,90.10
2022-11-03T21:42:59.610Z,90.10
2022-11-03T21:45:28.573Z,90.20
2022-11-03T21:48:34.742Z,90.30
2022-11-03T21:51:11.967Z,90.10
2022-11-03T21:53:41.187Z,89.70
2022-11-03T21:56:15.300Z,89.30
2022-11-03T21:58:45.694Z,89.40
2022-11-03T22:01:15.179Z,89.50
2022-11-03T22:03:43.821Z,89.60
2022-11-03T22:06:12.980Z,89.80
2022-11-03T22:08:41.709Z,89.80
2022-11-03T22:11:22.915Z,89.90
2022-11-03T22:14:12.592Z,89.90
2022-11-03T22:16:41.047Z,90.00
2022-11-03T22:19:28.287Z,90.10
2022-11-03T22:22:14.010Z,90.20
2022-11-03T22:25:00.274Z,90.20
2022-11-03T22:27:29.176Z,90.20
2022-11-03T22:30:16.521Z,90.10
2022-11-03T22:32:45.384Z,89.60
2022-11-03T22:35:42.770Z,89.20
2022-11-03T22:38:12.262Z,89.20
2022-11-03T22:40:59.207Z,89.20
2022-11-03T22:43:59.895Z,89.30
2022-11-03T22:46:30.083Z,89.50
2022-11-03T22:48:58.585Z,90.00
2022-11-03T22:51:28.537Z,90.10
2022-11-03T22:54:11.286Z,90.30
2022-11-03T22:56:40.255Z,90.50
2022-11-03T22:59:09.138Z,90.60
2022-11-03T23:01:39.091Z,90.50
2022-11-03T23:04:08.055Z,90.60
2022-11-03T23:06:37.252Z,90.70
2022-11-03T23:09:06.099Z,90.80
2022-11-03T23:11:35.481Z,90.80
2022-11-03T23:14:04.787Z,90.90
2022-11-03T23:16:34.072Z,91.10
2022-11-03T23:19:21.548Z,91.20
2022-11-03T23:22:08.606Z,91.50
2022-11-03T23:25:06.102Z,91.70
2022-11-03T23:27:34.504Z,91.80
2022-11-03T23:30:03.085Z,91.90
2022-11-03T23:32:31.630Z,92.00
2022-11-03T23:35:04.790Z,92.00
2022-11-03T23:37:33.303Z,91.70
2022-11-03T23:40:02.358Z,91.60
2022-11-03T23:42:30.852Z,91.50
2022-11-03T23:45:17.018Z,91.40
2022-11-03T23:48:02.898Z,91.40
2022-11-03T23:50:32.989Z,91.40
2022-11-03T23:53:01.499Z,91.50
2022-11-03T23:55:50.745Z,91.60
2022-11-03T23:58:21.964Z,91.70
